Saint Andrews, South Carolina
Current Conditions -  °F | °C
As of 3:35 PM on Friday 21 Nov 2014 (Local Time) from KJZI Reporting Station
Clear Clear  
Wind Chill: 61°   Ceiling: Unl
Heat Index: 61°   Visibility: 10mi
Dew Point: 43°   Wind: 12mph
Humidity: 52%   Direction: 80°E
Pressure: 30.37"   Gusts: NA
Location:  32.7979°N, 80.0031°W
Report Text: KJZI 212035Z AUTO 08010KT 10SM CLR 16/06 A3037 RMK A02 P000
Loading
Personal Weather Stations






























Interactive Weather Map New forecast layout! Learn more

10-Day Weather Forecast

Advertisements
Track Severe Weather on mobile